Time;durP1;ratioP1;P1;durP2;ratioP2;P2;SDS_P1;SDS_P2;PMS_P1;PMS_P2;Temp;Humidity;BMP_temperature;BMP_pressure;BME280_temperature;BME280_humidity;BME280_pressure;Samples;Min_cycle;Max_cycle;Signal;HPM_P1;HPM_P2
2023/08/21 00:02:12;;;;;;;13.35;7.97;;;;;;;-140.66;100.00;55571.53;5136797;27;20130;-71
2023/08/21 00:05:56;;;;;;;13.07;8.40;;;;;;;-140.66;100.00;55571.53;5137930;27;20027;-72
2023/08/21 00:09:40;;;;;;;14.65;7.97;;;;;;;-140.66;100.00;55571.53;5138575;27;20483;-72
2023/08/21 00:13:25;;;;;;;11.80;7.97;;;;;;;-140.66;100.00;55571.53;5138150;27;20045;-72
2023/08/21 00:17:09;;;;;;;14.20;8.65;;;;;;;-140.66;100.00;55571.53;5144702;27;20034;-71
2023/08/21 00:20:54;;;;;;;12.18;8.15;;;;;;;-140.66;100.00;55571.53;5143080;27;20023;-73
2023/08/21 00:24:38;;;;;;;12.80;8.55;;;;;;;-140.66;100.00;55571.53;5136825;27;20360;-72
2023/08/21 00:28:22;;;;;;;15.05;8.20;;;;;;;-140.66;100.00;55571.53;5137159;27;20034;-71
2023/08/21 00:32:06;;;;;;;25.13;9.15;;;;;;;-140.66;100.00;55571.53;5136846;27;20019;-72
2023/08/21 00:35:50;;;;;;;13.07;7.55;;;;;;;-140.66;100.00;55571.53;5136505;27;20027;-72
2023/08/21 00:39:35;;;;;;;9.48;7.28;;;;;;;-140.66;100.00;55571.53;5136087;27;20445;-71
2023/08/21 00:43:19;;;;;;;13.68;8.35;;;;;;;-140.66;100.00;55571.53;5137787;27;20118;-71
2023/08/21 00:47:04;;;;;;;11.57;7.38;;;;;;;-140.66;100.00;55571.53;5137807;27;20042;-72
2023/08/21 00:50:49;;;;;;;12.80;7.40;;;;;;;-140.66;100.00;55571.53;5137280;27;20361;-71
2023/08/21 00:54:34;;;;;;;10.75;7.20;;;;;;;-140.66;100.00;55571.53;5136004;27;20368;-71
2023/08/21 00:58:19;;;;;;;12.20;7.45;;;;;;;-140.66;100.00;55571.53;5136355;27;20413;-72
2023/08/21 01:02:03;;;;;;;14.13;7.72;;;;;;;-140.66;100.00;55571.53;5136540;27;20023;-71
2023/08/21 01:05:47;;;;;;;14.50;7.55;;;;;;;-140.66;100.00;55571.53;5135778;27;20030;-73
2023/08/21 01:09:48;;;;;;;8.77;7.00;;;;;;;-140.66;100.00;55571.53;5135427;27;20019;-72
2023/08/21 01:13:39;;;;;;;11.55;6.72;;;;;;;-140.66;100.00;55571.53;5136216;27;20036;-72
2023/08/21 01:17:24;;;;;;;10.63;7.22;;;;;;;-140.66;100.00;55571.53;5135864;27;20023;-72
2023/08/21 01:21:09;;;;;;;15.70;7.78;;;;;;;-140.66;100.00;55571.53;5136805;27;20460;-71
2023/08/21 01:24:56;;;;;;;9.98;6.88;;;;;;;-140.66;100.00;55571.53;5136378;27;20027;-72
2023/08/21 01:28:42;;;;;;;12.25;7.32;;;;;;;-140.66;100.00;55571.53;5135593;27;20041;-72
2023/08/21 01:32:33;;;;;;;11.43;7.72;;;;;;;-140.66;100.00;55571.53;5135695;27;20027;-71
2023/08/21 01:36:20;;;;;;;13.98;7.45;;;;;;;-140.66;100.00;55571.53;5134970;27;20088;-72
2023/08/21 01:40:05;;;;;;;12.13;8.20;;;;;;;-140.66;100.00;55571.53;5135769;27;20027;-71
2023/08/21 01:43:51;;;;;;;14.75;8.43;;;;;;;-140.66;100.00;55571.53;5135590;27;20050;-73
2023/08/21 01:47:35;;;;;;;12.95;8.30;;;;;;;-140.66;100.00;55571.53;5134853;27;20051;-71
2023/08/21 01:51:20;;;;;;;12.75;8.70;;;;;;;-140.66;100.00;55571.53;5135884;27;20144;-72
2023/08/21 01:55:07;;;;;;;14.30;8.75;;;;;;;-140.66;100.00;55571.53;5136714;27;20114;-73
2023/08/21 01:58:51;;;;;;;11.15;8.32;;;;;;;-140.66;100.00;55571.53;5134573;27;20448;-70
2023/08/21 02:02:36;;;;;;;13.38;7.85;;;;;;;-140.66;100.00;55571.53;5134326;27;20031;-71
2023/08/21 02:06:20;;;;;;;11.15;7.40;;;;;;;-140.66;100.00;55571.53;5136072;27;20031;-71
2023/08/21 02:10:04;;;;;;;9.75;7.32;;;;;;;-140.66;100.00;55571.53;5134736;27;20038;-72
2023/08/21 02:13:49;;;;;;;11.70;7.10;;;;;;;-140.66;100.00;55571.53;5135595;27;20038;-72
2023/08/21 02:17:33;;;;;;;13.73;7.00;;;;;;;-140.66;100.00;55571.53;5135160;27;20456;-73
2023/08/21 02:21:17;;;;;;;11.00;6.35;;;;;;;-140.66;100.00;55571.53;5135571;27;20023;-72
2023/08/21 02:25:02;;;;;;;9.20;6.35;;;;;;;-140.66;100.00;55571.53;5134366;27;20517;-72
2023/08/21 02:28:46;;;;;;;10.98;6.25;;;;;;;-140.66;100.00;55571.53;5135477;27;20027;-71
2023/08/21 02:32:31;;;;;;;10.02;6.10;;;;;;;-140.66;100.00;55571.53;5134382;27;20023;-71
2023/08/21 02:36:15;;;;;;;10.05;5.97;;;;;;;-140.66;100.00;55571.53;5135674;27;20352;-72
2023/08/21 02:39:59;;;;;;;6.78;5.72;;;;;;;-140.66;100.00;55571.53;5134446;27;20034;-72
2023/08/21 02:43:44;;;;;;;9.75;6.88;;;;;;;-140.66;100.00;55571.53;5135748;28;20348;-72
2023/08/21 02:47:28;;;;;;;9.25;5.97;;;;;;;-140.66;100.00;55571.53;5134416;28;20183;-72
2023/08/21 02:51:12;;;;;;;8.43;6.22;;;;;;;-140.66;100.00;55571.53;5134792;28;20054;-71
2023/08/21 02:54:56;;;;;;;10.77;6.07;;;;;;;-140.66;100.00;55571.53;5133875;28;20023;-71
2023/08/21 02:58:40;;;;;;;10.38;6.65;;;;;;;-140.66;100.00;55571.53;5133754;28;20159;-72
2023/08/21 03:02:25;;;;;;;10.50;6.07;;;;;;;-140.66;100.00;55571.53;5134123;28;20084;-71
2023/08/21 03:06:09;;;;;;;9.40;5.90;;;;;;;-140.66;100.00;55571.53;5134581;28;20035;-72
2023/08/21 03:09:53;;;;;;;8.90;6.43;;;;;;;-140.66;100.00;55571.53;5135843;28;20012;-72
2023/08/21 03:13:38;;;;;;;8.35;6.30;;;;;;;-140.66;100.00;55571.53;5135738;27;20494;-71
2023/08/21 03:17:23;;;;;;;7.63;5.85;;;;;;;-140.66;100.00;55571.53;5137733;27;20031;-71
2023/08/21 03:21:08;;;;;;;9.75;5.93;;;;;;;-140.66;100.00;55571.53;5138007;27;20027;-71
2023/08/21 03:24:56;;;;;;;12.57;5.75;;;;;;;-140.66;100.00;55571.53;5137585;27;20070;-72
2023/08/21 03:28:40;;;;;;;8.88;6.03;;;;;;;-140.66;100.00;55571.53;5138900;27;20114;-72
2023/08/21 03:32:24;;;;;;;8.80;5.75;;;;;;;-140.66;100.00;55571.53;5138752;27;20461;-72
2023/08/21 03:36:09;;;;;;;10.45;6.57;;;;;;;-140.66;100.00;55571.53;5137804;27;20106;-70
2023/08/21 03:39:53;;;;;;;10.63;6.40;;;;;;;-140.66;100.00;55571.53;5138260;27;20517;-72
2023/08/21 03:43:37;;;;;;;10.32;6.10;;;;;;;-140.66;100.00;55571.53;5138893;27;20027;-71
2023/08/21 03:47:21;;;;;;;8.48;6.15;;;;;;;-140.66;100.00;55571.53;5138715;27;20078;-72
2023/08/21 03:51:06;;;;;;;11.65;6.20;;;;;;;-140.66;100.00;55571.53;5139027;27;20027;-72
2023/08/21 03:54:50;;;;;;;7.75;5.25;;;;;;;-140.66;100.00;55571.53;5138201;27;20092;-71
2023/08/21 03:58:34;;;;;;;9.57;6.38;;;;;;;-140.66;100.00;55571.53;5136880;27;20019;-72
2023/08/21 04:02:18;;;;;;;9.48;6.20;;;;;;;-140.66;100.00;55571.53;5137043;27;20136;-71
2023/08/21 04:06:03;;;;;;;10.32;6.45;;;;;;;-140.66;100.00;55571.53;5137280;27;20088;-72
2023/08/21 04:09:47;;;;;;;10.68;6.63;;;;;;;-140.66;100.00;55571.53;5137701;27;20023;-72
2023/08/21 04:13:31;;;;;;;9.73;6.55;;;;;;;-140.66;100.00;55571.53;5137154;27;20456;-72
2023/08/21 04:17:20;;;;;;;12.23;6.90;;;;;;;-140.66;100.00;55571.53;5137162;27;20113;-72
2023/08/21 04:21:04;;;;;;;11.48;7.00;;;;;;;-140.66;100.00;55571.53;5137369;27;20019;-71
2023/08/21 04:24:49;;;;;;;12.45;6.78;;;;;;;-140.66;100.00;55571.53;5137620;27;20111;-71
2023/08/21 04:28:33;;;;;;;8.93;6.32;;;;;;;-140.66;100.00;55571.53;5136227;27;20463;-71
2023/08/21 04:32:17;;;;;;;10.02;6.85;;;;;;;-140.66;100.00;55571.53;5137518;27;20066;-71
2023/08/21 04:36:02;;;;;;;13.68;6.97;;;;;;;-140.66;100.00;55571.53;5143319;27;20034;-72
2023/08/21 04:39:49;;;;;;;10.75;6.80;;;;;;;-140.66;100.00;55571.53;5137256;27;20448;-70
2023/08/21 04:43:34;;;;;;;13.90;6.90;;;;;;;-140.66;100.00;55571.53;5136774;27;20023;-71
2023/08/21 04:47:28;;;;;;;12.45;7.00;;;;;;;-140.66;100.00;55571.53;5136928;27;20051;-71
2023/08/21 04:51:13;;;;;;;18.83;7.65;;;;;;;-140.66;100.00;55571.53;5137141;27;20130;-71
2023/08/21 04:54:57;;;;;;;10.43;7.15;;;;;;;-140.66;100.00;55571.53;5136087;27;20027;-71
2023/08/21 04:58:41;;;;;;;19.73;7.30;;;;;;;-140.66;100.00;55571.53;5136521;27;20027;-72
2023/08/21 05:02:25;;;;;;;14.68;7.55;;;;;;;-140.66;100.00;55571.53;5136172;27;20027;-71
2023/08/21 05:06:10;;;;;;;17.25;7.65;;;;;;;-140.66;100.00;55571.53;5137038;27;20031;-71
2023/08/21 05:09:54;;;;;;;11.43;7.38;;;;;;;-140.66;100.00;55571.53;5137649;27;20019;-71
2023/08/21 05:13:38;;;;;;;14.85;7.70;;;;;;;-140.66;100.00;55571.53;5136347;27;20038;-72
2023/08/21 05:17:23;;;;;;;18.33;10.68;;;;;;;-140.66;100.00;55571.53;5136067;27;20106;-72
2023/08/21 05:21:08;;;;;;;21.73;8.23;;;;;;;-140.66;100.00;55571.53;5136192;27;20028;-71
2023/08/21 05:24:52;;;;;;;14.27;7.40;;;;;;;-140.66;100.00;55571.53;5135765;27;20039;-72
2023/08/21 05:28:36;;;;;;;14.68;7.40;;;;;;;-140.66;100.00;55571.53;5136720;27;20027;-72
2023/08/21 05:32:21;;;;;;;12.00;7.20;;;;;;;-140.66;100.00;55571.53;5135075;27;20056;-72
2023/08/21 05:36:05;;;;;;;12.70;7.70;;;;;;;-140.66;100.00;55571.53;5135295;27;20326;-71
2023/08/21 05:39:49;;;;;;;17.25;8.43;;;;;;;-140.66;100.00;55571.53;5136412;27;20127;-71
2023/08/21 05:43:34;;;;;;;12.48;7.07;;;;;;;-140.66;100.00;55571.53;5136767;27;20041;-72
2023/08/21 05:47:18;;;;;;;16.25;8.20;;;;;;;-140.66;100.00;55571.53;5135894;27;20043;-71
2023/08/21 05:51:03;;;;;;;12.73;8.23;;;;;;;-140.66;100.00;55571.53;5135258;27;20042;-72
2023/08/21 05:54:47;;;;;;;12.32;8.10;;;;;;;-140.66;100.00;55571.53;5136113;27;20092;-72
2023/08/21 05:58:32;;;;;;;16.75;9.43;;;;;;;-140.66;100.00;55571.53;5134808;27;20364;-72
2023/08/21 06:02:17;;;;;;;14.15;8.75;;;;;;;-140.66;100.00;55571.53;5135156;27;20452;-71
2023/08/21 06:06:01;;;;;;;18.13;10.13;;;;;;;-140.66;100.00;55571.53;5134372;27;20055;-72
2023/08/21 06:09:45;;;;;;;18.92;9.05;;;;;;;-140.66;100.00;55571.53;5135157;27;20031;-71
2023/08/21 06:13:30;;;;;;;12.57;8.85;;;;;;;-140.66;100.00;55571.53;5135122;27;20035;-72
2023/08/21 06:17:14;;;;;;;15.38;8.95;;;;;;;-140.66;100.00;55571.53;5135008;27;20023;-72
2023/08/21 06:20:58;;;;;;;12.57;8.38;;;;;;;-140.66;100.00;55571.53;5134598;27;20063;-73
2023/08/21 06:24:43;;;;;;;12.95;8.40;;;;;;;-140.66;100.00;55571.53;5135482;27;20031;-72
2023/08/21 06:28:27;;;;;;;13.77;8.23;;;;;;;-140.66;100.00;55571.53;5134352;27;20069;-72
2023/08/21 06:32:11;;;;;;;11.25;8.60;;;;;;;-140.66;100.00;55571.53;5134883;27;20045;-71
2023/08/21 06:35:55;;;;;;;11.60;7.82;;;;;;;-140.66;100.00;55571.53;5134385;27;20026;-72
2023/08/21 06:39:40;;;;;;;11.45;7.95;;;;;;;-140.66;100.00;55571.53;5133856;27;20094;-71
2023/08/21 06:43:24;;;;;;;16.65;8.30;;;;;;;-140.66;100.00;55571.53;5134223;28;20035;-71
2023/08/21 06:47:09;;;;;;;20.83;9.18;;;;;;;-140.66;100.00;55571.53;5134327;27;20368;-72
2023/08/21 06:50:53;;;;;;;20.33;9.18;;;;;;;-140.66;100.00;55571.53;5138864;27;20023;-71
2023/08/21 06:54:37;;;;;;;16.00;8.40;;;;;;;-140.66;100.00;55571.53;5138498;27;20410;-70
2023/08/21 06:58:21;;;;;;;11.48;8.45;;;;;;;-140.66;100.00;55571.53;5138154;27;20079;-72
2023/08/21 07:02:06;;;;;;;11.75;8.52;;;;;;;-140.66;100.00;55571.53;5139390;27;20027;-71
2023/08/21 07:05:55;;;;;;;16.67;8.50;;;;;;;-140.66;100.00;55571.53;5139264;27;20031;-71
2023/08/21 07:09:39;;;;;;;12.02;8.70;;;;;;;-140.66;100.00;55571.53;5137928;27;20118;-71
2023/08/21 07:13:23;;;;;;;17.88;9.32;;;;;;;-140.66;100.00;55571.53;5137809;27;20023;-72
2023/08/21 07:17:08;;;;;;;16.55;9.18;;;;;;;-140.66;100.00;55571.53;5137142;27;20055;-71
2023/08/21 07:20:52;;;;;;;17.20;8.85;;;;;;;-140.66;100.00;55571.53;5138472;27;20034;-71
2023/08/21 07:24:37;;;;;;;15.63;9.20;;;;;;;-140.66;100.00;55571.53;5137996;27;20054;-71
2023/08/21 07:28:21;;;;;;;14.35;8.55;;;;;;;-140.66;100.00;55571.53;5137649;27;20523;-71
2023/08/21 07:32:05;;;;;;;14.52;8.73;;;;;;;-140.66;100.00;55571.53;5137880;27;20059;-72
2023/08/21 07:35:58;;;;;;;14.02;9.10;;;;;;;-140.66;100.00;55571.53;5137428;27;20353;-71
2023/08/21 07:39:43;;;;;;;12.85;9.80;;;;;;;-140.66;100.00;55571.53;5138876;27;20352;-70
2023/08/21 07:43:27;;;;;;;14.63;9.23;;;;;;;-140.66;100.00;55571.53;5138184;27;20023;-72
2023/08/21 07:47:11;;;;;;;9.63;8.00;;;;;;;-140.66;100.00;55571.53;5138118;27;20380;-72
2023/08/21 07:50:56;;;;;;;9.43;7.43;;;;;;;-140.66;100.00;55571.53;5137842;27;20364;-72
2023/08/21 07:54:40;;;;;;;12.98;7.95;;;;;;;-140.66;100.00;55571.53;5137371;27;20038;-71
2023/08/21 07:58:24;;;;;;;10.15;7.75;;;;;;;-140.66;100.00;55571.53;5138190;27;20504;-73
2023/08/21 08:02:09;;;;;;;9.43;7.78;;;;;;;-140.66;100.00;55571.53;5138124;27;20061;-72
2023/08/21 08:05:54;;;;;;;11.30;7.60;;;;;;;-140.66;100.00;55571.53;5137519;27;20031;-72
2023/08/21 08:09:39;;;;;;;17.10;7.53;;;;;;;-140.66;100.00;55571.53;5137824;27;20019;-71
2023/08/21 08:13:23;;;;;;;10.40;7.68;;;;;;;-140.66;100.00;55571.53;5138153;27;20041;-71
2023/08/21 08:17:07;;;;;;;11.70;7.47;;;;;;;-140.66;100.00;55571.53;5137099;27;20027;-71
2023/08/21 08:20:52;;;;;;;9.45;7.45;;;;;;;-140.66;100.00;55571.53;5137835;27;20334;-71
2023/08/21 08:24:37;;;;;;;11.52;8.07;;;;;;;-140.66;100.00;55571.53;5137138;27;20043;-71
2023/08/21 08:28:21;;;;;;;16.00;8.07;;;;;;;-140.66;100.00;55571.53;5137383;27;20031;-71
2023/08/21 08:32:05;;;;;;;10.30;7.75;;;;;;;-140.66;100.00;55571.53;5136706;27;20023;-71
2023/08/21 08:35:50;;;;;;;10.70;7.97;;;;;;;-140.66;100.00;55571.53;5137466;27;20023;-72
2023/08/21 08:39:34;;;;;;;11.23;7.78;;;;;;;-140.66;100.00;55571.53;5136044;27;20023;-71
2023/08/21 08:43:19;;;;;;;9.10;6.93;;;;;;;-140.66;100.00;55571.53;5136065;27;20027;-71
2023/08/21 08:47:04;;;;;;;13.68;7.65;;;;;;;-140.66;100.00;55571.53;5136287;27;20353;-71
2023/08/21 08:50:50;;;;;;;15.90;8.25;;;;;;;-140.66;100.00;55571.53;5136369;27;20061;-70
2023/08/21 08:54:37;;;;;;;9.98;7.63;;;;;;;-140.66;100.00;55571.53;5136794;27;20031;-71
2023/08/21 08:58:22;;;;;;;12.82;7.90;;;;;;;-140.66;100.00;55571.53;5136018;27;20377;-71
2023/08/21 09:02:06;;;;;;;11.05;7.72;;;;;;;-140.66;100.00;55571.53;5136121;27;20035;-71
2023/08/21 09:05:51;;;;;;;10.88;7.45;;;;;;;-140.66;100.00;55571.53;5135340;27;20462;-71
2023/08/21 09:09:44;;;;;;;10.68;7.80;;;;;;;-140.66;100.00;55571.53;5137453;27;20042;-74
2023/08/21 09:13:32;;;;;;;11.25;7.47;;;;;;;-140.66;100.00;55571.53;5148460;27;20043;-70
2023/08/21 09:17:17;;;;;;;30.02;8.57;;;;;;;-140.66;100.00;55571.53;5137109;27;20069;-72
2023/08/21 09:21:02;;;;;;;13.20;8.32;;;;;;;-140.66;100.00;55571.53;5135669;27;20034;-71
2023/08/21 09:25:06;;;;;;;10.45;7.63;;;;;;;-140.66;100.00;55571.53;5135705;27;20050;-72
2023/08/21 09:28:51;;;;;;;9.50;6.97;;;;;;;-140.66;100.00;55571.53;5135805;27;20027;-71
2023/08/21 09:32:57;;;;;;;9.27;7.55;;;;;;;-140.66;100.00;55571.53;5134619;27;20038;-71
2023/08/21 09:36:42;;;;;;;9.52;7.07;;;;;;;-140.66;100.00;55571.53;5136147;27;20030;-71
2023/08/21 09:40:30;;;;;;;13.40;7.90;;;;;;;-140.66;100.00;55571.53;5135357;27;20109;-71
2023/08/21 09:44:15;;;;;;;11.43;7.07;;;;;;;-140.66;100.00;55571.53;5135575;27;20031;-71
2023/08/21 09:48:00;;;;;;;11.70;7.15;;;;;;;-140.66;100.00;55571.53;5135515;27;20054;-71
2023/08/21 09:51:45;;;;;;;10.20;7.30;;;;;;;-140.66;100.00;55571.53;5135117;27;20023;-71
2023/08/21 09:55:31;;;;;;;10.55;7.15;;;;;;;-140.66;100.00;55571.53;5135760;27;20122;-71
2023/08/21 09:59:16;;;;;;;12.90;6.97;;;;;;;-140.66;100.00;55571.53;5134673;27;20027;-71
2023/08/21 10:03:03;;;;;;;13.10;7.25;;;;;;;-140.66;100.00;55571.53;5135945;27;20033;-71
2023/08/21 10:06:48;;;;;;;12.07;7.35;;;;;;;-140.66;100.00;55571.53;5135989;27;20026;-72
2023/08/21 10:10:33;;;;;;;9.45;6.53;;;;;;;-140.66;100.00;55571.53;5134717;27;20015;-72
2023/08/21 10:14:18;;;;;;;12.93;6.97;;;;;;;-140.66;100.00;55571.53;5135517;27;20373;-71
2023/08/21 10:18:23;;;;;;;14.77;7.30;;;;;;;-140.66;100.00;55571.53;5135597;27;20062;-71
2023/08/21 10:22:13;;;;;;;10.60;6.80;;;;;;;-140.66;100.00;55571.53;5135701;27;20106;-72
2023/08/21 10:25:59;;;;;;;13.45;6.97;;;;;;;-140.66;100.00;55571.53;5135097;27;20456;-72
2023/08/21 10:29:56;;;;;;;15.18;6.85;;;;;;;-140.66;100.00;55571.53;5139946;27;20092;-70
2023/08/21 10:33:45;;;;;;;9.88;6.50;;;;;;;-140.66;100.00;55571.53;5140419;27;20063;-69
2023/08/21 10:37:56;;;;;;;11.55;6.50;;;;;;;-140.66;100.00;55571.53;5139597;27;20023;-71
2023/08/21 10:42:09;;;;;;;11.38;7.65;;;;;;;-140.66;100.00;55571.53;5139071;27;20083;-71
2023/08/21 10:45:55;;;;;;;8.82;6.07;;;;;;;-140.66;100.00;55571.53;5142509;28;20027;-71
2023/08/21 10:49:40;;;;;;;11.65;6.70;;;;;;;-140.66;100.00;55571.53;5140569;28;20053;-71
2023/08/21 10:53:24;;;;;;;8.43;6.75;;;;;;;-140.66;100.00;55571.53;5135476;28;20015;-71
2023/08/21 10:57:08;;;;;;;12.80;6.70;;;;;;;-140.66;100.00;55571.53;5134119;28;20019;-70
2023/08/21 11:00:57;;;;;;;9.45;6.38;;;;;;;-140.66;100.00;55571.53;5134855;28;20027;-71
2023/08/21 11:04:45;;;;;;;7.75;6.07;;;;;;;-140.66;100.00;55571.53;5134308;28;20031;-72
2023/08/21 11:08:35;;;;;;;10.85;6.47;;;;;;;-140.66;100.00;55571.53;5135099;28;20106;-71
2023/08/21 11:12:20;;;;;;;12.35;6.20;;;;;;;-140.66;100.00;55571.53;5133867;28;20142;-71
2023/08/21 11:16:06;;;;;;;9.07;5.90;;;;;;;-140.66;100.00;55571.53;5134526;28;20038;-71
2023/08/21 11:19:51;;;;;;;6.88;5.93;;;;;;;-140.66;100.00;55571.53;5134938;28;20034;-71
2023/08/21 11:23:36;;;;;;;9.02;6.60;;;;;;;-140.66;100.00;55571.53;5133614;28;20039;-72
2023/08/21 11:27:23;;;;;;;9.45;6.28;;;;;;;-140.66;100.00;55571.53;5134189;28;20380;-71
2023/08/21 11:31:09;;;;;;;10.00;6.38;;;;;;;-140.66;100.00;55571.53;5135130;28;20471;-72
2023/08/21 11:34:55;;;;;;;8.70;6.57;;;;;;;-140.66;100.00;55571.53;5134825;27;20031;-71
2023/08/21 11:38:57;;;;;;;7.70;6.20;;;;;;;-140.66;100.00;55571.53;5143278;27;20033;-71
2023/08/21 11:43:00;;;;;;;12.13;5.50;;;;;;;-140.66;100.00;55571.53;5137164;27;20121;-71
2023/08/21 11:46:44;;;;;;;11.18;6.10;;;;;;;-140.66;100.00;55571.53;5137371;27;20033;-72
2023/08/21 11:50:29;;;;;;;10.13;6.10;;;;;;;-140.66;100.00;55571.53;5137478;27;20095;-71
2023/08/21 11:54:13;;;;;;;7.65;6.13;;;;;;;-140.66;100.00;55571.53;5137496;27;20026;-72
2023/08/21 11:57:57;;;;;;;8.95;6.68;;;;;;;-140.66;100.00;55571.53;5137114;27;20377;-72
2023/08/21 12:01:42;;;;;;;10.23;6.65;;;;;;;-140.66;100.00;55571.53;5138571;27;20038;-72
2023/08/21 12:05:27;;;;;;;10.70;6.57;;;;;;;-140.66;100.00;55571.53;5137818;27;20027;-73
2023/08/21 12:09:11;;;;;;;10.95;7.50;;;;;;;-140.66;100.00;55571.53;5136931;27;20107;-72
2023/08/21 12:12:56;;;;;;;10.23;6.68;;;;;;;-140.66;100.00;55571.53;5137736;27;20019;-71
2023/08/21 12:16:40;;;;;;;9.85;6.45;;;;;;;-140.66;100.00;55571.53;5138149;27;20318;-71
2023/08/21 12:20:24;;;;;;;14.25;6.65;;;;;;;-140.66;100.00;55571.53;5137603;27;20029;-72
2023/08/21 12:24:08;;;;;;;10.90;6.78;;;;;;;-140.66;100.00;55571.53;5136700;27;20059;-71
2023/08/21 12:27:53;;;;;;;11.27;7.28;;;;;;;-140.66;100.00;55571.53;5136457;27;20038;-71
2023/08/21 12:31:37;;;;;;;11.82;6.75;;;;;;;-140.66;100.00;55571.53;5136610;27;20019;-70
2023/08/21 12:35:21;;;;;;;7.22;6.32;;;;;;;-140.66;100.00;55571.53;5136607;27;20023;-72
2023/08/21 12:39:09;;;;;;;8.07;6.32;;;;;;;-140.66;100.00;55571.53;5135754;27;20031;-72
2023/08/21 12:42:54;;;;;;;10.32;7.53;;;;;;;-140.66;100.00;55571.53;5135931;27;20037;-72
2023/08/21 12:46:38;;;;;;;14.88;7.13;;;;;;;-140.66;100.00;55571.53;5136050;27;20472;-72
2023/08/21 12:50:23;;;;;;;10.35;7.00;;;;;;;-140.66;100.00;55571.53;5135695;27;20125;-72
2023/08/21 12:54:08;;;;;;;10.38;6.40;;;;;;;-140.66;100.00;55571.53;5135780;27;20026;-73
2023/08/21 12:57:53;;;;;;;10.48;7.13;;;;;;;-140.66;100.00;55571.53;5137011;27;20038;-71
2023/08/21 13:01:37;;;;;;;6.90;6.20;;;;;;;-140.66;100.00;55571.53;5135964;27;20369;-72
2023/08/21 13:05:21;;;;;;;8.68;6.20;;;;;;;-140.66;100.00;55571.53;5135952;27;20031;-71
2023/08/21 13:09:06;;;;;;;10.25;6.40;;;;;;;-140.66;100.00;55571.53;5136005;27;20023;-71
2023/08/21 13:12:52;;;;;;;13.13;6.10;;;;;;;-140.66;100.00;55571.53;5135499;27;20035;-71
2023/08/21 13:16:37;;;;;;;9.07;6.50;;;;;;;-140.66;100.00;55571.53;5135359;27;20118;-71
2023/08/21 13:20:21;;;;;;;10.35;7.20;;;;;;;-140.66;100.00;55571.53;5135735;27;20038;-72
2023/08/21 13:24:05;;;;;;;8.93;6.00;;;;;;;-140.66;100.00;55571.53;5135220;27;20050;-71
2023/08/21 13:27:50;;;;;;;15.38;6.97;;;;;;;-140.66;100.00;55571.53;5135829;27;20106;-72
2023/08/21 13:31:35;;;;;;;36.45;8.40;;;;;;;-140.66;100.00;55571.53;5134932;27;20095;-72
2023/08/21 13:35:20;;;;;;;10.32;6.45;;;;;;;-140.66;100.00;55571.53;5135976;27;20019;-72
2023/08/21 13:39:06;;;;;;;14.10;6.60;;;;;;;-140.66;100.00;55571.53;5136363;27;20467;-72
2023/08/21 13:42:50;;;;;;;11.52;6.57;;;;;;;-140.66;100.00;55571.53;5136315;27;20452;-72
2023/08/21 13:46:35;;;;;;;13.90;5.88;;;;;;;-140.66;100.00;55571.53;5135280;27;20031;-71
2023/08/21 13:50:19;;;;;;;12.98;6.82;;;;;;;-140.66;100.00;55571.53;5136289;27;20461;-71
2023/08/21 13:54:04;;;;;;;10.57;6.32;;;;;;;-140.66;100.00;55571.53;5135235;27;20468;-71
2023/08/21 13:57:50;;;;;;;14.65;6.43;;;;;;;-140.66;100.00;55571.53;5134330;27;20095;-72
2023/08/21 14:01:35;;;;;;;8.95;6.78;;;;;;;-140.66;100.00;55571.53;5134655;27;20037;-71
2023/08/21 14:05:19;;;;;;;10.10;6.75;;;;;;;-140.66;100.00;55571.53;5134977;27;20027;-71
2023/08/21 14:09:04;;;;;;;12.23;6.80;;;;;;;-140.66;100.00;55571.53;5121144;27;20044;-72
2023/08/21 14:12:48;;;;;;;13.02;7.15;;;;;;;-140.66;100.00;55571.53;5136279;27;20373;-72
2023/08/21 14:16:32;;;;;;;8.20;6.22;;;;;;;-140.66;100.00;55571.53;5134974;27;20027;-70
2023/08/21 14:20:17;;;;;;;12.13;6.65;;;;;;;-140.66;100.00;55571.53;5134899;27;20058;-71
2023/08/21 14:24:01;;;;;;;19.80;7.50;;;;;;;-140.66;100.00;55571.53;5134405;27;20027;-70
2023/08/21 14:27:45;;;;;;;13.90;6.13;;;;;;;-140.66;100.00;55571.53;5134720;27;20035;-72
2023/08/21 14:31:29;;;;;;;12.75;7.80;;;;;;;-140.66;100.00;55571.53;5134623;27;20345;-71
2023/08/21 14:35:14;;;;;;;15.95;6.75;;;;;;;-140.66;100.00;55571.53;5134287;27;20114;-71
2023/08/21 14:38:59;;;;;;;11.90;6.85;;;;;;;-140.66;100.00;55571.53;5134337;27;20146;-72
2023/08/21 14:42:43;;;;;;;14.40;6.70;;;;;;;-140.66;100.00;55571.53;5135415;27;20027;-71
2023/08/21 14:46:28;;;;;;;9.63;6.18;;;;;;;-140.66;100.00;55571.53;5135198;27;20110;-71
2023/08/21 14:50:12;;;;;;;13.23;7.13;;;;;;;-140.66;100.00;55571.53;5135081;28;20460;-71
2023/08/21 14:53:57;;;;;;;11.63;6.55;;;;;;;-140.66;100.00;55571.53;5134541;28;20083;-72
2023/08/21 14:57:41;;;;;;;11.05;6.82;;;;;;;-140.66;100.00;55571.53;5134574;28;20164;-71
2023/08/21 15:01:25;;;;;;;13.73;6.40;;;;;;;-140.66;100.00;55571.53;5135462;28;20059;-72
2023/08/21 15:05:10;;;;;;;9.02;6.50;;;;;;;-140.66;100.00;55571.53;5134253;28;20062;-72
2023/08/21 15:08:54;;;;;;;8.70;6.53;;;;;;;-140.66;100.00;55571.53;5137020;27;20027;-72
2023/08/21 15:12:38;;;;;;;11.05;7.10;;;;;;;-140.66;100.00;55571.53;5139038;27;20063;-71
2023/08/21 15:16:23;;;;;;;11.90;7.20;;;;;;;-140.66;100.00;55571.53;5139586;27;20027;-70
2023/08/21 15:20:07;;;;;;;9.32;6.97;;;;;;;-140.66;100.00;55571.53;5138387;27;20023;-71
2023/08/21 15:23:51;;;;;;;20.65;7.15;;;;;;;-140.66;100.00;55571.53;5138231;27;20034;-72
2023/08/21 15:27:36;;;;;;;14.18;7.20;;;;;;;-140.66;100.00;55571.53;5138008;27;20019;-71
2023/08/21 15:31:20;;;;;;;13.48;6.72;;;;;;;-140.66;100.00;55571.53;5137731;27;20384;-72
2023/08/21 15:35:04;;;;;;;14.18;7.10;;;;;;;-140.66;100.00;55571.53;5137718;27;20114;-71
2023/08/21 15:38:49;;;;;;;20.55;7.78;;;;;;;-140.66;100.00;55571.53;5137554;27;20136;-71
2023/08/21 15:42:33;;;;;;;9.65;7.28;;;;;;;-140.66;100.00;55571.53;5137545;27;20373;-72
2023/08/21 15:46:17;;;;;;;14.00;7.07;;;;;;;-140.66;100.00;55571.53;5137214;27;20023;-71
2023/08/21 15:50:01;;;;;;;13.02;8.15;;;;;;;-140.66;100.00;55571.53;5137575;27;20043;-71
2023/08/21 15:53:46;;;;;;;24.38;8.35;;;;;;;-140.66;100.00;55571.53;5137709;27;20371;-72
2023/08/21 15:57:31;;;;;;;17.83;8.20;;;;;;;-140.66;100.00;55571.53;5137238;27;20042;-72
2023/08/21 16:01:17;;;;;;;16.25;7.78;;;;;;;-140.66;100.00;55571.53;5138025;27;20047;-71
2023/08/21 16:05:01;;;;;;;17.20;7.70;;;;;;;-140.66;100.00;55571.53;5137495;27;20368;-71
2023/08/21 16:08:45;;;;;;;12.98;7.35;;;;;;;-140.66;100.00;55571.53;5136622;27;20030;-71
2023/08/21 16:12:30;;;;;;;11.35;7.40;;;;;;;-140.66;100.00;55571.53;5136649;27;20106;-71
2023/08/21 16:16:14;;;;;;;14.95;7.80;;;;;;;-140.66;100.00;55571.53;5137372;27;20031;-73
2023/08/21 16:20:02;;;;;;;15.73;8.40;;;;;;;-140.66;100.00;55571.53;5136482;27;20460;-71
2023/08/21 16:23:47;;;;;;;17.23;8.45;;;;;;;-140.66;100.00;55571.53;5138119;27;20092;-71
2023/08/21 16:27:31;;;;;;;16.52;8.70;;;;;;;-140.66;100.00;55571.53;5138228;27;20114;-70
2023/08/21 16:31:16;;;;;;;71.50;13.10;;;;;;;-140.66;100.00;55571.53;5136972;27;20027;-71
2023/08/21 16:35:00;;;;;;;29.00;10.27;;;;;;;-140.66;100.00;55571.53;5137195;27;20066;-71
2023/08/21 16:38:45;;;;;;;36.88;9.73;;;;;;;-140.66;100.00;55571.53;5137332;27;20031;-72
2023/08/21 16:42:29;;;;;;;27.35;9.90;;;;;;;-140.66;100.00;55571.53;5136341;27;20525;-71
2023/08/21 16:46:13;;;;;;;30.10;10.57;;;;;;;-140.66;100.00;55571.53;5135931;27;20023;-70
2023/08/21 16:49:57;;;;;;;16.88;9.45;;;;;;;-140.66;100.00;55571.53;5136968;27;20092;-72
2023/08/21 16:53:42;;;;;;;16.15;9.02;;;;;;;-140.66;100.00;55571.53;5136643;27;20030;-71